This is the latest recevied weather packets stored in our database for station/object K1LBG. If no packets are shown the sender has not sent any weather packets the latest 10 day(s).
| Time | Temp. | Humidity | Pressure | Rain* | Wind** | Luminosity | Snow |
|---|---|---|---|---|---|---|---|
| 1778253098 | 15.56° C | 44% | 1009.6 hPa | 0 mm | - | - | - |
| 1778250091 | 14.44° C | 43% | 1009.9 hPa | 0 mm | - | - | - |
| 1778249521 | 14.44° C | 45% | 1009.9 hPa | 0 mm | - | - | - |
| 1778246502 | 13.33° C | 48% | 1010.2 hPa | 0 mm | - | - | - |
| 1778246186 | 13.33° C | 47% | 1010.2 hPa | 0 mm | - | - | - |
| 1778245589 | 13.33° C | 49% | 1010.3 hPa | 0 mm | - | - | - |
| 1778244692 | 12.22° C | 52% | 1010.3 hPa | 0 mm | - | - | - |
| 1778238990 | 7.78° C | 65% | 1010.3 hPa | 0 mm | - | - | - |
| 1778238729 | 7.22° C | 67% | 1010.2 hPa | 0 mm | - | - | - |
| 1778235683 | 5.56° C | 75% | 1009.7 hPa | 0 mm | - | - | - |
| 1778234793 | 5.56° C | 74% | 1009.6 hPa | 0 mm | - | - | - |
| 1778234198 | 5° C | 74% | 1009.5 hPa | 0 mm | - | - | - |
| 1778233917 | 5° C | 75% | 1009.5 hPa | 0 mm | - | - | - |
| 1778233582 | 5° C | 76% | 1009.6 hPa | 0 mm | - | - | - |
| 1778233001 | 5° C | 77% | 1009.3 hPa | 0 mm | - | - | - |
| 1778232692 | 5° C | 77% | 1009.3 hPa | 0 mm | - | - | - |
| 1778224609 | 5° C | 73% | 1008.1 hPa | 0 mm | - | - | - |
| 1778224292 | 5° C | 74% | 1008.1 hPa | 0 mm | - | - | - |
| 1778223395 | 5.56° C | 71% | 1007.7 hPa | 0 mm | - | - | - |
| 1778220404 | 7.22° C | 65% | 1007.8 hPa | 0 mm | - | - | - |
| 1778219231 | 7.78° C | 62% | 1007.7 hPa | 0 mm | - | - | - |
| 1778214988 | 8.33° C | 64% | 1007.9 hPa | 0 mm | - | - | - |
| 1778213807 | 8.33° C | 63% | 1007.9 hPa | 0 mm | - | - | - |
| 1778212593 | 8.33° C | 61% | 1008.1 hPa | 0 mm | - | - | - |
| 1778211391 | 8.33° C | 64% | 1008.1 hPa | 0 mm | - | - | - |
* Rain latest hour (hover to see other rain measurements)
** Current wind speed in m/s (hover to see current wind gust speed)